createdAt,value
2022-11-28T00:01:43.040Z,6.25
2022-11-28T00:04:11.509Z,6.22
2022-11-28T00:06:45.370Z,6.19
2022-11-28T00:09:14.461Z,6.19
2022-11-28T00:11:43.798Z,6.18
2022-11-28T00:14:11.389Z,6.18
2022-11-28T00:16:38.873Z,6.16
2022-11-28T00:19:07.172Z,6.18
2022-11-28T00:21:35.511Z,6.19
2022-11-28T00:24:03.385Z,6.20
2022-11-28T00:26:38.405Z,6.21
2022-11-28T00:29:07.827Z,6.20
2022-11-28T00:31:43.288Z,6.22
2022-11-28T00:34:13.961Z,6.21
2022-11-28T00:36:42.453Z,6.22
2022-11-28T00:39:09.632Z,6.21
2022-11-28T00:41:37.005Z,6.20
2022-11-28T00:44:04.096Z,6.20
2022-11-28T00:46:31.128Z,6.19
2022-11-28T00:48:59.197Z,6.21
2022-11-28T00:51:31.215Z,6.22
2022-11-28T00:54:00.681Z,6.20
2022-11-28T00:56:32.684Z,6.22
2022-11-28T00:59:00.103Z,6.22
2022-11-28T01:01:38.547Z,6.23
2022-11-28T01:04:09.633Z,6.23
2022-11-28T01:06:44.848Z,6.22
2022-11-28T01:09:18.097Z,6.22
2022-11-28T01:11:46.798Z,6.23
2022-11-28T01:14:13.916Z,6.24
2022-11-28T01:16:41.092Z,6.23
2022-11-28T01:19:08.695Z,6.25
2022-11-28T01:21:36.315Z,6.23
2022-11-28T01:24:04.483Z,6.25
2022-11-28T01:26:31.875Z,6.26
2022-11-28T01:29:00.604Z,6.26
2022-11-28T01:31:29.777Z,6.25
2022-11-28T01:33:57.907Z,6.27
2022-11-28T01:36:26.923Z,6.27
2022-11-28T01:38:54.174Z,6.27
2022-11-28T01:41:26.111Z,6.27
2022-11-28T01:44:05.410Z,6.28
2022-11-28T01:46:34.118Z,6.27
2022-11-28T01:49:21.908Z,6.28
2022-11-28T01:51:56.455Z,6.27
2022-11-28T01:54:25.854Z,6.29
2022-11-28T01:57:01.494Z,6.28
2022-11-28T01:59:35.063Z,6.27
2022-11-28T02:02:07.856Z,6.27
2022-11-28T02:04:35.360Z,6.29
2022-11-28T02:07:02.632Z,6.30
2022-11-28T02:09:29.676Z,6.34
2022-11-28T02:12:23.393Z,6.35
2022-11-28T02:15:08.492Z,6.36
2022-11-28T02:18:01.924Z,6.35
2022-11-28T02:21:00.034Z,6.33
2022-11-28T02:23:45.757Z,6.33
2022-11-28T02:26:24.931Z,6.33
2022-11-28T02:29:25.549Z,6.32
2022-11-28T02:32:20.357Z,6.32
2022-11-28T02:35:17.063Z,6.32
2022-11-28T02:37:53.014Z,6.33
2022-11-28T02:40:31.143Z,6.35
2022-11-28T02:43:30.784Z,6.32
2022-11-28T02:46:23.405Z,6.32
2022-11-28T02:49:02.443Z,6.33
2022-11-28T02:51:49.286Z,6.34
2022-11-28T02:54:18.619Z,6.33
2022-11-28T02:56:54.561Z,6.33
2022-11-28T02:59:33.666Z,6.36
2022-11-28T03:02:02.065Z,6.38
2022-11-28T03:04:58.147Z,6.38
2022-11-28T03:07:49.919Z,6.39
2022-11-28T03:10:48.900Z,6.37
2022-11-28T03:13:23.319Z,6.35
2022-11-28T03:16:19.363Z,6.37
2022-11-28T03:19:01.422Z,6.38
2022-11-28T03:21:48.794Z,6.37
2022-11-28T03:24:31.646Z,6.36
2022-11-28T03:27:24.741Z,6.37
2022-11-28T03:30:01.172Z,6.37
2022-11-28T03:32:33.852Z,6.38
2022-11-28T03:35:07.931Z,6.39
2022-11-28T03:37:41.353Z,6.38
2022-11-28T03:40:15.830Z,6.38
2022-11-28T03:42:58.044Z,6.38
2022-11-28T03:45:29.792Z,6.41
2022-11-28T03:48:10.334Z,6.41
2022-11-28T03:51:14.767Z,6.42
2022-11-28T03:53:51.871Z,6.43
2022-11-28T03:56:43.861Z,6.45
2022-11-28T03:59:23.816Z,6.46
2022-11-28T04:02:03.874Z,6.45
2022-11-28T04:04:52.613Z,6.46
2022-11-28T04:07:44.537Z,6.46
2022-11-28T04:10:25.181Z,6.45
2022-11-28T04:13:04.977Z,6.47
2022-11-28T04:15:57.699Z,6.47
2022-11-28T04:18:28.175Z,6.48
2022-11-28T04:21:24.729Z,6.47
2022-11-28T04:23:55.682Z,6.48
2022-11-28T04:26:32.264Z,6.48
2022-11-28T04:29:02.870Z,6.48
2022-11-28T04:31:31.512Z,6.49
2022-11-28T04:34:04.998Z,6.47
2022-11-28T04:36:35.742Z,6.45
2022-11-28T04:39:10.054Z,6.44
2022-11-28T04:41:47.066Z,6.44
2022-11-28T04:44:23.156Z,6.43
2022-11-28T04:46:54.968Z,6.44
2022-11-28T04:49:24.234Z,6.44
2022-11-28T04:52:12.319Z,6.44
2022-11-28T04:55:00.039Z,6.43
2022-11-28T04:57:33.827Z,6.44
2022-11-28T05:00:07.201Z,6.46
2022-11-28T05:02:36.137Z,6.44
2022-11-28T05:05:10.773Z,6.45
2022-11-28T05:07:37.928Z,6.45
2022-11-28T05:10:06.899Z,6.45
2022-11-28T05:12:34.142Z,6.46
2022-11-28T05:15:01.295Z,6.48
2022-11-28T05:17:28.598Z,6.47
2022-11-28T05:19:55.663Z,6.46
2022-11-28T05:22:22.851Z,6.47
2022-11-28T05:24:50.056Z,6.47
2022-11-28T05:27:17.546Z,6.48
2022-11-28T05:29:51.870Z,6.47
2022-11-28T05:32:20.345Z,6.48
2022-11-28T05:34:47.663Z,6.47
2022-11-28T05:37:14.736Z,6.47
2022-11-28T05:39:42.134Z,6.46
2022-11-28T05:42:09.281Z,6.46
2022-11-28T05:44:37.613Z,6.45
2022-11-28T05:47:05.181Z,6.44
2022-11-28T05:49:32.360Z,6.43
2022-11-28T05:51:59.417Z,6.41
2022-11-28T05:54:27.335Z,6.40
2022-11-28T05:56:54.438Z,6.41
2022-11-28T05:59:21.959Z,6.41
2022-11-28T06:01:49.404Z,6.41
2022-11-28T06:04:16.626Z,6.41
2022-11-28T06:06:44.103Z,6.42
2022-11-28T06:09:11.351Z,6.42
2022-11-28T06:11:38.625Z,6.42
2022-11-28T06:14:05.993Z,6.44
2022-11-28T06:16:33.375Z,6.44
2022-11-28T06:19:04.372Z,6.44
2022-11-28T06:21:33.082Z,6.41
2022-11-28T06:24:01.249Z,6.40
2022-11-28T06:26:29.358Z,6.40
2022-11-28T06:28:56.439Z,6.38
2022-11-28T06:31:28.372Z,6.39
2022-11-28T06:33:56.888Z,6.40
2022-11-28T06:36:31.219Z,6.40
2022-11-28T06:38:58.236Z,6.34
2022-11-28T06:41:25.396Z,6.33
2022-11-28T06:43:52.415Z,6.35
2022-11-28T06:46:21.924Z,6.34
2022-11-28T06:48:52.359Z,6.34
2022-11-28T06:51:20.643Z,6.35
2022-11-28T06:53:48.034Z,6.33
2022-11-28T06:56:19.250Z,6.33
2022-11-28T06:58:47.472Z,6.33
2022-11-28T07:01:22.095Z,6.33
2022-11-28T07:03:50.207Z,6.34
2022-11-28T07:06:22.235Z,6.33
2022-11-28T07:08:49.859Z,6.32
2022-11-28T07:11:19.541Z,6.32
2022-11-28T07:13:47.911Z,6.31
2022-11-28T07:16:28.346Z,6.31
2022-11-28T07:18:56.962Z,6.32
2022-11-28T07:21:24.444Z,6.32
2022-11-28T07:23:52.305Z,6.35
2022-11-28T07:26:21.694Z,6.37
2022-11-28T07:28:50.268Z,6.37
2022-11-28T07:31:26.998Z,6.38
2022-11-28T07:33:54.411Z,6.40
2022-11-28T07:36:26.579Z,6.39
2022-11-28T07:38:56.894Z,6.40
2022-11-28T07:41:26.794Z,6.41
2022-11-28T07:43:57.749Z,6.42
2022-11-28T07:46:26.115Z,6.44
2022-11-28T07:48:53.678Z,6.43
2022-11-28T07:51:24.641Z,6.46
2022-11-28T07:53:53.193Z,6.49
2022-11-28T07:56:25.343Z,6.52
2022-11-28T07:58:52.980Z,6.54
2022-11-28T08:01:29.287Z,6.57
2022-11-28T08:03:57.085Z,6.60
2022-11-28T08:06:30.652Z,6.62
2022-11-28T08:09:00.450Z,6.63
2022-11-28T08:11:30.174Z,6.65
2022-11-28T08:13:58.196Z,6.65
2022-11-28T08:16:28.311Z,6.68
2022-11-28T08:18:57.192Z,6.71
2022-11-28T08:21:28.696Z,6.72
2022-11-28T08:23:59.552Z,6.71
2022-11-28T08:26:30.588Z,6.73
2022-11-28T08:29:03.246Z,6.74
2022-11-28T08:31:37.587Z,6.75
2022-11-28T08:34:07.347Z,6.73
2022-11-28T08:36:35.474Z,6.77
2022-11-28T08:41:59.757Z,6.82
2022-11-28T08:44:30.471Z,6.86
2022-11-28T08:46:58.139Z,6.89
2022-11-28T08:49:25.405Z,6.89
2022-11-28T08:51:52.509Z,6.90
2022-11-28T08:54:23.290Z,6.90
2022-11-28T08:56:50.768Z,6.91
2022-11-28T08:59:18.100Z,6.93
2022-11-28T09:01:45.317Z,6.94
2022-11-28T09:04:12.492Z,6.96
2022-11-28T09:06:40.387Z,6.98
2022-11-28T09:09:10.138Z,7.00
2022-11-28T09:11:38.276Z,7.02
2022-11-28T09:14:05.767Z,7.03
2022-11-28T09:16:33.006Z,7.05
2022-11-28T09:19:00.199Z,7.05
2022-11-28T09:21:27.420Z,7.08
2022-11-28T09:23:56.774Z,7.09
2022-11-28T09:26:25.471Z,7.12
2022-11-28T09:28:54.145Z,7.16
2022-11-28T09:31:22.856Z,7.19
2022-11-28T09:33:52.576Z,7.20
2022-11-28T09:36:23.208Z,7.23
2022-11-28T09:38:53.825Z,7.26
2022-11-28T09:41:42.675Z,7.28
2022-11-28T09:44:44.483Z,7.32
2022-11-28T09:47:31.056Z,7.31
2022-11-28T09:50:20.910Z,7.33
2022-11-28T09:53:35.094Z,7.36
2022-11-28T09:56:17.466Z,7.32
2022-11-28T09:58:53.227Z,7.35
2022-11-28T10:01:43.626Z,7.33
2022-11-28T10:04:29.565Z,7.36
2022-11-28T10:07:28.104Z,7.38
2022-11-28T10:10:19.473Z,7.40
2022-11-28T10:13:07.750Z,7.41
2022-11-28T10:15:51.952Z,7.44
2022-11-28T10:18:47.455Z,7.42
2022-11-28T10:21:27.295Z,7.50
2022-11-28T10:24:03.964Z,7.45
2022-11-28T10:26:41.923Z,7.46
2022-11-28T10:29:54.314Z,7.49
2022-11-28T10:32:37.296Z,7.54
2022-11-28T10:35:29.692Z,7.58
2022-11-28T10:37:56.906Z,7.54
2022-11-28T10:40:51.984Z,7.56
2022-11-28T10:43:54.455Z,7.58
2022-11-28T10:46:49.470Z,7.61
2022-11-28T10:49:54.392Z,7.64
2022-11-28T10:53:06.983Z,7.67
2022-11-28T10:56:11.857Z,7.70
2022-11-28T10:59:12.802Z,7.73
2022-11-28T11:01:44.681Z,7.75
2022-11-28T11:04:20.525Z,7.69
2022-11-28T11:07:22.661Z,7.72
2022-11-28T11:09:55.838Z,7.75
2022-11-28T11:12:32.566Z,7.74
2022-11-28T11:15:15.414Z,7.76
2022-11-28T11:17:42.654Z,7.78
2022-11-28T11:20:29.225Z,7.81
2022-11-28T11:22:59.455Z,7.83
2022-11-28T11:25:30.261Z,7.84
2022-11-28T11:28:02.041Z,7.88
2022-11-28T11:30:38.812Z,7.87
2022-11-28T11:33:14.499Z,7.84
2022-11-28T11:35:48.831Z,7.83
2022-11-28T11:38:21.339Z,7.85
2022-11-28T11:40:50.876Z,7.82
2022-11-28T11:43:29.798Z,7.88
2022-11-28T11:46:15.241Z,7.89
2022-11-28T11:48:53.442Z,7.91
2022-11-28T11:51:32.730Z,7.94
2022-11-28T11:54:17.346Z,7.98
2022-11-28T11:56:51.219Z,8.00
2022-11-28T11:59:30.994Z,8.06
2022-11-28T12:02:16.723Z,8.07
2022-11-28T12:04:55.384Z,8.04
2022-11-28T12:07:33.987Z,8.03
2022-11-28T12:10:04.577Z,8.05
2022-11-28T12:12:37.109Z,8.07
2022-11-28T12:15:13.257Z,8.11
2022-11-28T12:18:10.614Z,8.15
2022-11-28T12:21:13.646Z,8.11
2022-11-28T12:24:07.493Z,8.14
2022-11-28T12:27:23.786Z,8.17
2022-11-28T12:30:05.986Z,8.19
2022-11-28T12:32:33.297Z,8.24
2022-11-28T12:35:22.210Z,8.24
2022-11-28T12:38:19.660Z,8.24
2022-11-28T12:41:32.145Z,8.26
2022-11-28T12:44:26.656Z,8.27
2022-11-28T12:47:17.662Z,8.28
2022-11-28T12:50:03.347Z,8.30
2022-11-28T12:53:28.388Z,8.31
2022-11-28T12:56:27.820Z,8.30
2022-11-28T12:58:59.860Z,8.33
2022-11-28T13:02:15.698Z,8.34
2022-11-28T13:05:18.098Z,8.36
2022-11-28T13:08:48.521Z,8.36
2022-11-28T13:11:33.792Z,8.36
2022-11-28T13:14:56.656Z,8.37
2022-11-28T13:17:53.494Z,8.38
2022-11-28T13:20:42.630Z,8.39
2022-11-28T13:23:20.815Z,8.40
2022-11-28T13:26:03.806Z,8.41
2022-11-28T13:28:49.676Z,8.42
2022-11-28T13:32:15.918Z,8.45
2022-11-28T13:34:43.543Z,8.45
2022-11-28T13:40:41.202Z,8.47
2022-11-28T13:43:21.200Z,8.50
2022-11-28T13:45:48.868Z,8.51
2022-11-28T13:48:57.382Z,8.52
2022-11-28T13:51:32.094Z,8.54
2022-11-28T13:54:21.679Z,8.54
2022-11-28T13:57:16.863Z,8.57
2022-11-28T14:00:04.610Z,8.57
2022-11-28T14:02:47.230Z,8.57
2022-11-28T14:05:38.762Z,8.57
2022-11-28T14:08:07.509Z,8.57
2022-11-28T14:10:52.976Z,8.57
2022-11-28T14:13:40.465Z,8.58
2022-11-28T14:16:35.589Z,8.59
2022-11-28T14:19:13.220Z,8.59
2022-11-28T14:22:33.270Z,8.59
2022-11-28T14:25:42.969Z,8.58
2022-11-28T14:28:37.879Z,8.58
2022-11-28T14:31:11.268Z,8.54
2022-11-28T14:33:42.920Z,8.55
2022-11-28T14:36:34.401Z,8.56
2022-11-28T14:39:16.636Z,8.57
2022-11-28T14:42:02.776Z,8.58
2022-11-28T14:44:56.717Z,8.59
2022-11-28T14:47:24.024Z,8.55
2022-11-28T14:50:09.636Z,8.56
2022-11-28T14:52:43.000Z,8.55
2022-11-28T14:55:13.111Z,8.54
2022-11-28T14:58:01.845Z,8.54
2022-11-28T15:00:49.543Z,8.54
2022-11-28T15:03:31.613Z,8.54
2022-11-28T15:06:03.909Z,8.54
2022-11-28T15:08:48.944Z,8.54
2022-11-28T15:11:40.367Z,8.54
2022-11-28T15:14:23.228Z,8.54
2022-11-28T15:16:57.008Z,8.53
2022-11-28T15:19:48.311Z,8.52
2022-11-28T15:22:42.154Z,8.48
2022-11-28T15:25:23.491Z,8.47
2022-11-28T15:27:51.720Z,8.47
2022-11-28T15:30:26.981Z,8.45
2022-11-28T15:33:00.248Z,8.43
2022-11-28T15:35:28.967Z,8.44
2022-11-28T15:37:58.325Z,8.44
2022-11-28T15:40:35.937Z,8.45
2022-11-28T15:43:12.622Z,8.43
2022-11-28T15:45:42.845Z,8.42
2022-11-28T15:48:39.340Z,8.43
2022-11-28T15:51:08.598Z,8.40
2022-11-28T15:53:42.624Z,8.40
2022-11-28T15:56:15.269Z,8.35
2022-11-28T15:58:45.505Z,8.34
2022-11-28T16:01:21.873Z,8.34
2022-11-28T16:04:15.415Z,8.32
2022-11-28T16:06:51.054Z,8.29
2022-11-28T16:09:18.606Z,8.27
2022-11-28T16:11:50.680Z,8.26
2022-11-28T16:14:44.196Z,8.26
2022-11-28T16:17:27.271Z,8.24
2022-11-28T16:19:57.147Z,8.22
2022-11-28T16:22:36.806Z,8.23
2022-11-28T16:25:24.498Z,8.20
2022-11-28T16:27:53.571Z,8.20
2022-11-28T16:30:33.203Z,8.20
2022-11-28T16:33:01.446Z,8.19
2022-11-28T16:35:40.926Z,8.18
2022-11-28T16:38:28.137Z,8.17
2022-11-28T16:41:01.738Z,8.15
2022-11-28T16:43:37.774Z,8.14
2022-11-28T16:46:16.285Z,8.13
2022-11-28T16:48:56.645Z,8.10
2022-11-28T16:51:28.156Z,8.09
2022-11-28T16:54:00.725Z,8.09
2022-11-28T16:56:31.467Z,8.07
2022-11-28T16:59:08.190Z,8.07
2022-11-28T17:01:36.766Z,8.07
2022-11-28T17:04:05.486Z,8.04
2022-11-28T17:06:37.633Z,8.04
2022-11-28T17:09:12.046Z,8.01
2022-11-28T17:11:46.575Z,8.00
2022-11-28T17:14:14.566Z,8.00
2022-11-28T17:16:43.507Z,7.98
2022-11-28T17:19:11.689Z,7.98
2022-11-28T17:21:55.842Z,7.99
2022-11-28T17:24:27.325Z,7.96
2022-11-28T17:26:55.606Z,7.96
2022-11-28T17:29:25.591Z,7.95
2022-11-28T17:31:55.456Z,7.95
2022-11-28T17:34:31.399Z,7.94
2022-11-28T17:37:01.161Z,7.94
2022-11-28T17:39:30.723Z,7.93
2022-11-28T17:42:01.364Z,7.92
2022-11-28T17:44:32.486Z,7.92
2022-11-28T17:47:02.380Z,7.91
2022-11-28T17:49:31.230Z,7.91
2022-11-28T17:52:01.498Z,7.91
2022-11-28T17:54:29.736Z,7.92
2022-11-28T17:56:59.040Z,7.91
2022-11-28T17:59:27.275Z,7.89
2022-11-28T18:01:55.075Z,7.88
2022-11-28T18:04:28.911Z,7.87
2022-11-28T18:06:58.843Z,7.86
2022-11-28T18:09:26.928Z,7.85
2022-11-28T18:11:54.532Z,7.84
2022-11-28T18:14:22.341Z,7.84
2022-11-28T18:16:52.102Z,7.82
2022-11-28T18:19:19.900Z,7.82
2022-11-28T18:21:48.120Z,7.80
2022-11-28T18:24:15.842Z,7.81
2022-11-28T18:26:43.359Z,7.79
2022-11-28T18:29:11.031Z,7.79
2022-11-28T18:31:38.689Z,7.78
2022-11-28T18:34:08.200Z,7.77
2022-11-28T18:36:38.361Z,7.75
2022-11-28T18:39:09.902Z,7.72
2022-11-28T18:41:37.832Z,7.69
2022-11-28T18:44:06.634Z,7.69
2022-11-28T18:46:35.567Z,7.69
2022-11-28T18:49:03.554Z,7.69
2022-11-28T18:51:35.574Z,7.69
2022-11-28T18:54:06.837Z,7.66
2022-11-28T18:56:35.092Z,7.63
2022-11-28T18:59:03.561Z,7.62
2022-11-28T19:01:34.439Z,7.61
2022-11-28T19:04:08.781Z,7.62
2022-11-28T19:06:37.518Z,7.62
2022-11-28T19:09:09.629Z,7.61
2022-11-28T19:11:38.618Z,7.63
2022-11-28T19:14:08.269Z,7.61
2022-11-28T19:16:37.801Z,7.61
2022-11-28T19:19:06.629Z,7.60
2022-11-28T19:21:36.665Z,7.61
2022-11-28T19:24:08.069Z,7.62
2022-11-28T19:26:36.093Z,7.61
2022-11-28T19:29:03.339Z,7.62
2022-11-28T19:31:34.625Z,7.61
2022-11-28T19:34:13.599Z,7.63
2022-11-28T19:36:48.120Z,7.62
2022-11-28T19:39:19.313Z,7.62
2022-11-28T19:41:47.475Z,7.60
2022-11-28T19:44:15.717Z,7.58
2022-11-28T19:46:43.619Z,7.56
2022-11-28T19:49:22.708Z,7.56
2022-11-28T19:51:51.147Z,7.56
2022-11-28T19:54:19.919Z,7.57
2022-11-28T19:56:49.229Z,7.58
2022-11-28T19:59:17.554Z,7.58
2022-11-28T20:01:48.304Z,7.56
2022-11-28T20:04:16.464Z,7.53
2022-11-28T20:06:43.541Z,7.51
2022-11-28T20:09:13.945Z,7.49
2022-11-28T20:11:44.280Z,7.47
2022-11-28T20:14:16.369Z,7.46
2022-11-28T20:16:46.868Z,7.47
2022-11-28T20:19:16.156Z,7.46
2022-11-28T20:21:46.172Z,7.45
2022-11-28T20:24:15.025Z,7.44
2022-11-28T20:26:44.050Z,7.43
2022-11-28T20:29:16.161Z,7.41
2022-11-28T20:31:45.878Z,7.39
2022-11-28T20:34:18.021Z,7.40
2022-11-28T20:36:46.162Z,7.39
2022-11-28T20:39:13.969Z,7.37
2022-11-28T20:41:41.155Z,7.37
2022-11-28T20:44:09.469Z,7.37
2022-11-28T20:46:37.044Z,7.37
2022-11-28T20:49:07.610Z,7.37
2022-11-28T20:51:36.044Z,7.37
2022-11-28T20:54:05.884Z,7.36
2022-11-28T20:57:19.582Z,7.35
2022-11-28T20:59:32.543Z,7.35
2022-11-28T21:02:02.071Z,7.36
2022-11-28T21:04:32.004Z,7.34
2022-11-28T21:06:59.059Z,7.35
2022-11-28T21:09:26.169Z,7.36
2022-11-28T21:11:58.862Z,7.36
2022-11-28T21:14:29.227Z,7.35
2022-11-28T21:16:58.238Z,7.35
2022-11-28T21:19:25.569Z,7.36
2022-11-28T21:21:52.695Z,7.35
2022-11-28T21:24:20.116Z,7.35
2022-11-28T21:26:52.892Z,7.35
2022-11-28T21:29:22.296Z,7.34
2022-11-28T21:31:49.467Z,7.35
2022-11-28T21:34:17.658Z,7.35
2022-11-28T21:36:45.423Z,7.35
2022-11-28T21:39:20.111Z,7.33
2022-11-28T21:41:48.304Z,7.33
2022-11-28T21:44:23.052Z,7.31
2022-11-28T21:46:50.194Z,7.31
2022-11-28T21:49:17.873Z,7.30
2022-11-28T21:51:45.089Z,7.30
2022-11-28T21:54:12.795Z,7.25
2022-11-28T21:56:40.417Z,7.25
2022-11-28T21:59:08.431Z,7.27
2022-11-28T22:01:37.051Z,7.29
2022-11-28T22:04:05.292Z,7.29
2022-11-28T22:06:33.246Z,7.31
2022-11-28T22:09:09.232Z,7.34
2022-11-28T22:11:38.734Z,7.32
2022-11-28T22:14:06.018Z,7.30
2022-11-28T22:16:33.428Z,7.30
2022-11-28T22:19:01.248Z,7.32
2022-11-28T22:21:51.771Z,7.32
2022-11-28T22:24:15.946Z,7.30
2022-11-28T22:26:44.227Z,7.30
2022-11-28T22:29:12.444Z,7.29
2022-11-28T22:31:39.830Z,7.30
2022-11-28T22:34:09.364Z,7.29
2022-11-28T22:36:36.812Z,7.29
2022-11-28T22:39:05.088Z,7.30
2022-11-28T22:41:32.318Z,7.31
2022-11-28T22:44:01.796Z,7.31
2022-11-28T22:46:32.178Z,7.31
2022-11-28T22:49:01.477Z,7.31
2022-11-28T22:51:30.488Z,7.34
2022-11-28T22:54:01.077Z,7.35
2022-11-28T22:56:32.354Z,7.32
2022-11-28T22:59:01.589Z,7.33
2022-11-28T23:01:31.633Z,7.31
2022-11-28T23:04:00.795Z,7.33
2022-11-28T23:06:31.448Z,7.34
2022-11-28T23:09:00.874Z,7.34
2022-11-28T23:11:35.338Z,7.35
2022-11-28T23:14:05.328Z,7.32
2022-11-28T23:16:39.722Z,7.30
2022-11-28T23:19:13.185Z,7.30
2022-11-28T23:21:43.153Z,7.30
2022-11-28T23:24:18.390Z,7.29
2022-11-28T23:26:47.489Z,7.31
2022-11-28T23:29:15.908Z,7.32
2022-11-28T23:31:44.459Z,7.28
2022-11-28T23:34:13.251Z,7.26
2022-11-28T23:36:46.672Z,7.26
2022-11-28T23:39:20.909Z,7.25
2022-11-28T23:41:48.791Z,7.26
2022-11-28T23:44:17.880Z,7.26
2022-11-28T23:46:46.034Z,7.26
2022-11-28T23:49:13.793Z,7.26
2022-11-28T23:51:41.369Z,7.25
2022-11-28T23:54:10.362Z,7.25
2022-11-28T23:56:40.180Z,7.25
2022-11-28T23:59:10.218Z,7.22
